This is the latest recevied weather packets stored in our database for station/object G6UYG-13. If no packets are shown the sender has not sent any weather packets the latest 1 day(s).
| Time | Temp. | Humidity | Pressure | Rain* | Wind** | Luminosity | Snow |
|---|---|---|---|---|---|---|---|
| 1777992874 | 12.22° C | 71% | 1012.6 hPa | 0 mm | 1.34 m/s, 70° | 109 W/m² | - |
| 1777992454 | 12.22° C | 71% | 1012.6 hPa | 0 mm | 0.89 m/s, 75° | 116 W/m² | - |
| 1777992034 | 12.22° C | 70% | 1012.6 hPa | 0 mm | 0.45 m/s, 25° | 128 W/m² | - |
| 1777991614 | 12.22° C | 71% | 1012.5 hPa | 0 mm | 0.45 m/s, 53° | 156 W/m² | - |
| 1777991194 | 12.22° C | 71% | 1012.6 hPa | 0 mm | 0.45 m/s, 68° | 172 W/m² | - |
| 1777990774 | 12.22° C | 71% | 1012.6 hPa | 0 mm | 0.45 m/s, 59° | 185 W/m² | - |
| 1777990354 | 12.22° C | 72% | 1012.7 hPa | 0 mm | 0.89 m/s, 72° | 188 W/m² | - |
| 1777989934 | 12.22° C | 72% | 1012.7 hPa | 0 mm | 0.89 m/s, 63° | 190 W/m² | - |
| 1777989514 | 11.67° C | 73% | 1012.7 hPa | 0 mm | 0.45 m/s, 57° | 269 W/m² | - |
| 1777989094 | 11.67° C | 73% | 1012.7 hPa | 0 mm | 0.45 m/s, 69° | 250 W/m² | - |
| 1777988674 | 11.67° C | 73% | 1012.7 hPa | 0 mm | 0.45 m/s, 70° | 207 W/m² | - |
| 1777988254 | 11.67° C | 72% | 1012.8 hPa | 0 mm | 0.45 m/s, 24° | 155 W/m² | - |
| 1777987834 | 11.67° C | 72% | 1012.8 hPa | 0 mm | 0.89 m/s, 62° | 135 W/m² | - |
| 1777987414 | 11.11° C | 73% | 1012.8 hPa | 0 mm | 0.89 m/s, 36° | 169 W/m² | - |
| 1777986994 | 11.11° C | 73% | 1012.8 hPa | 0 mm | 0.89 m/s, 355° | 165 W/m² | - |
| 1777986574 | 11.67° C | 74% | 1012.8 hPa | 0 mm | 0.89 m/s, 75° | 104 W/m² | - |
| 1777986154 | 11.67° C | 73% | 1012.8 hPa | 0 mm | 1.34 m/s, 67° | 93 W/m² | - |
| 1777985734 | 11.67° C | 72% | 1012.8 hPa | 0 mm | 1.34 m/s, 47° | 91 W/m² | - |
| 1777985314 | 12.22° C | 70% | 1012.6 hPa | 0 mm | 1.79 m/s, 319° | 95 W/m² | - |
| 1777984894 | 12.22° C | 67% | 1012.7 hPa | 0 mm | 0.89 m/s, 11° | 188 W/m² | - |
| 1777984474 | 12.22° C | 66% | 1012.6 hPa | 0 mm | 0.89 m/s, 46° | 241 W/m² | - |
| 1777984055 | 12.22° C | 67% | 1012.7 hPa | 0 mm | 0.89 m/s, 46° | 244 W/m² | - |
| 1777983635 | 12.22° C | 68% | 1012.7 hPa | 0 mm | 0.89 m/s, 66° | 246 W/m² | - |
| 1777983215 | 12.22° C | 70% | 1012.7 hPa | 0 mm | 0.89 m/s, 67° | 229 W/m² | - |
| 1777982795 | 11.67° C | 72% | 1012.7 hPa | 0 mm | 0.89 m/s, 63° | 214 W/m² | - |
* Rain latest hour (hover to see other rain measurements)
** Current wind speed in m/s (hover to see current wind gust speed)